Time;durP1;ratioP1;P1;durP2;ratioP2;P2;SDS_P1;SDS_P2;PMS_P1;PMS_P2;Temp;Humidity;BMP_temperature;BMP_pressure;BME280_temperature;BME280_humidity;BME280_pressure;Samples;Min_cycle;Max_cycle;Signal;HPM_P1;HPM_P2
2021/01/08 00:00:43;;;;;;;7.30;5.40;;;;;;;;;;5087870;28;20196;-71
2021/01/08 00:03:09;;;;;;;6.90;5.00;;;;;;;;;;5079044;28;20188;-72
2021/01/08 00:05:34;;;;;;;7.47;5.50;;;;;;;;;;5088595;28;20610;-72
2021/01/08 00:07:59;;;;;;;8.73;5.63;;;;;;;;;;5077337;28;20192;-72
2021/01/08 00:10:25;;;;;;;8.90;5.40;;;;;;;;;;5086271;28;20196;-72
2021/01/08 00:12:50;;;;;;;6.60;4.67;;;;;;;;;;5079280;28;20198;-72
2021/01/08 00:15:15;;;;;;;7.13;4.97;;;;;;;;;;5086048;28;20187;-72
2021/01/08 00:17:41;;;;;;;6.40;4.63;;;;;;;;;;5079108;28;20547;-72
2021/01/08 00:20:07;;;;;;;6.20;4.50;;;;;;;;;;5086447;28;20198;-71
2021/01/08 00:22:32;;;;;;;9.73;5.03;;;;;;;;;;5059711;28;20184;-71
2021/01/08 00:24:57;;;;;;;6.67;4.87;;;;;;;;;;5087433;28;20277;-71
2021/01/08 00:27:23;;;;;;;8.40;5.30;;;;;;;;;;5076531;28;20180;-71
2021/01/08 00:29:49;;;;;;;7.23;5.03;;;;;;;;;;5086575;28;20196;-72
2021/01/08 00:32:16;;;;;;;6.77;5.00;;;;;;;;;;5085091;28;20353;-72
2021/01/08 00:34:41;;;;;;;7.50;5.00;;;;;;;;;;5060330;28;20275;-71
2021/01/08 00:37:07;;;;;;;8.10;5.10;;;;;;;;;;5085255;28;20314;-71
2021/01/08 00:39:33;;;;;;;24.93;7.00;;;;;;;;;;5076658;28;20278;-72
2021/01/08 00:41:58;;;;;;;8.63;5.00;;;;;;;;;;5068152;28;20238;-72
2021/01/08 00:44:24;;;;;;;8.87;5.10;;;;;;;;;;5077363;28;20203;-71
2021/01/08 00:46:50;;;;;;;8.47;5.07;;;;;;;;;;5069430;28;20225;-71
2021/01/08 00:49:16;;;;;;;9.87;4.63;;;;;;;;;;5078017;28;20198;-72
2021/01/08 00:51:42;;;;;;;9.60;5.17;;;;;;;;;;5068306;28;20215;-72
2021/01/08 00:54:07;;;;;;;9.33;5.27;;;;;;;;;;5079786;28;20192;-72
2021/01/08 00:56:33;;;;;;;9.17;5.20;;;;;;;;;;5086783;28;20199;-72
2021/01/08 00:58:59;;;;;;;9.03;5.07;;;;;;;;;;5079187;28;20199;-72
2021/01/08 01:01:25;;;;;;;9.00;5.57;;;;;;;;;;5084529;28;20320;-72
2021/01/08 01:03:50;;;;;;;7.80;5.00;;;;;;;;;;5087540;28;20643;-72
2021/01/08 01:06:29;;;;;;;7.33;4.77;;;;;;;;;;5078519;28;20666;-72
2021/01/08 01:08:55;;;;;;;8.30;4.40;;;;;;;;;;5086768;28;20191;-72
2021/01/08 01:11:22;;;;;;;8.67;5.20;;;;;;;;;;5060443;28;20188;-72
2021/01/08 01:13:48;;;;;;;7.80;5.20;;;;;;;;;;5069742;28;20647;-72
2021/01/08 01:16:15;;;;;;;7.63;4.97;;;;;;;;;;5076794;28;20200;-72
2021/01/08 01:18:42;;;;;;;8.47;5.47;;;;;;;;;;5085504;28;20188;-72
2021/01/08 01:21:08;;;;;;;7.77;5.20;;;;;;;;;;5056508;28;20189;-72
2021/01/08 01:23:33;;;;;;;8.73;5.27;;;;;;;;;;5086124;28;20664;-72
2021/01/08 01:25:58;;;;;;;7.63;5.10;;;;;;;;;;5076879;28;20576;-72
2021/01/08 01:28:24;;;;;;;10.30;5.20;;;;;;;;;;5083788;28;20237;-72
2021/01/08 01:30:49;;;;;;;7.30;5.00;;;;;;;;;;5075674;28;20190;-71
2021/01/08 01:33:14;;;;;;;10.40;5.20;;;;;;;;;;5084941;28;20188;-71
2021/01/08 01:35:40;;;;;;;7.47;5.47;;;;;;;;;;5080813;28;20190;-71
2021/01/08 01:38:05;;;;;;;10.37;5.40;;;;;;;;;;5064030;28;20312;-71
2021/01/08 01:40:31;;;;;;;7.40;4.90;;;;;;;;;;5073323;28;20180;-71
2021/01/08 01:42:56;;;;;;;7.70;5.20;;;;;;;;;;5082967;28;20183;-71
2021/01/08 01:45:22;;;;;;;8.90;5.60;;;;;;;;;;5087018;28;20577;-71
2021/01/08 01:47:47;;;;;;;7.37;4.77;;;;;;;;;;5082152;28;20187;-71
2021/01/08 01:50:13;;;;;;;7.83;5.27;;;;;;;;;;5072393;28;20187;-71
2021/01/08 01:52:38;;;;;;;8.97;5.23;;;;;;;;;;5078562;28;20199;-71
2021/01/08 01:55:06;;;;;;;9.30;5.27;;;;;;;;;;5091585;28;20588;-71
2021/01/08 01:57:31;;;;;;;8.73;5.63;;;;;;;;;;5080204;28;20211;-71
2021/01/08 01:59:57;;;;;;;8.30;5.17;;;;;;;;;;5089528;28;20547;-71
2021/01/08 02:02:36;;;;;;;9.20;5.53;;;;;;;;;;5081273;28;20184;-71
2021/01/08 02:05:07;;;;;;;8.77;5.67;;;;;;;;;;5090008;28;20587;-71
2021/01/08 02:07:36;;;;;;;7.80;5.23;;;;;;;;;;5081834;28;20202;-72
2021/01/08 02:10:05;;;;;;;11.23;5.90;;;;;;;;;;5091393;28;20186;-71
2021/01/08 02:12:33;;;;;;;8.97;5.67;;;;;;;;;;5086753;28;20186;-72
2021/01/08 02:15:00;;;;;;;11.50;6.23;;;;;;;;;;5085728;28;20188;-72
2021/01/08 02:17:28;;;;;;;8.90;5.90;;;;;;;;;;5087907;28;20216;-72
2021/01/08 02:20:01;;;;;;;9.07;5.87;;;;;;;;;;5079577;28;20192;-72
2021/01/08 02:22:32;;;;;;;9.83;5.80;;;;;;;;;;5088988;28;20219;-72
2021/01/08 02:25:03;;;;;;;9.80;5.97;;;;;;;;;;5080745;28;20297;-72
2021/01/08 02:27:30;;;;;;;13.20;6.33;;;;;;;;;;5088054;28;20259;-72
2021/01/08 02:29:56;;;;;;;10.70;6.10;;;;;;;;;;5081873;28;20189;-72
2021/01/08 02:32:22;;;;;;;11.77;6.57;;;;;;;;;;5090486;28;20222;-72
2021/01/08 02:34:48;;;;;;;10.77;6.47;;;;;;;;;;5080260;28;20188;-72
2021/01/08 02:37:13;;;;;;;10.67;6.43;;;;;;;;;;5088068;28;20258;-72
2021/01/08 02:39:41;;;;;;;13.67;6.10;;;;;;;;;;5079277;28;20271;-72
2021/01/08 02:42:08;;;;;;;11.17;6.50;;;;;;;;;;5087391;28;20665;-72
2021/01/08 02:44:34;;;;;;;11.97;6.70;;;;;;;;;;5080134;28;20750;-72
2021/01/08 02:46:59;;;;;;;9.53;6.13;;;;;;;;;;5091931;28;20254;-72
2021/01/08 02:49:25;;;;;;;16.07;6.50;;;;;;;;;;5082952;28;20180;-72
2021/01/08 02:51:50;;;;;;;13.60;7.10;;;;;;;;;;5086792;28;20291;-72
2021/01/08 02:54:16;;;;;;;11.40;6.73;;;;;;;;;;5071611;28;20664;-72
2021/01/08 02:56:47;;;;;;;10.57;6.90;;;;;;;;;;5081206;28;20685;-72
2021/01/08 02:59:14;;;;;;;13.03;7.30;;;;;;;;;;5092127;28;20223;-72
2021/01/08 03:01:40;;;;;;;12.43;7.00;;;;;;;;;;5080442;28;20191;-72
2021/01/08 03:04:06;;;;;;;11.67;6.27;;;;;;;;;;5087340;28;20192;-72
2021/01/08 03:06:33;;;;;;;9.57;6.40;;;;;;;;;;5081066;28;20271;-72
2021/01/08 03:08:59;;;;;;;11.33;6.23;;;;;;;;;;5087242;28;20212;-72
2021/01/08 03:11:25;;;;;;;10.10;6.60;;;;;;;;;;5063020;28;20188;-72
2021/01/08 03:13:53;;;;;;;13.00;7.10;;;;;;;;;;5086800;28;20303;-72
2021/01/08 03:16:18;;;;;;;13.40;6.80;;;;;;;;;;5082771;28;20269;-72
2021/01/08 03:18:44;;;;;;;13.30;6.80;;;;;;;;;;5084700;28;20184;-72
2021/01/08 03:21:09;;;;;;;11.30;6.63;;;;;;;;;;5082506;28;20177;-72
2021/01/08 03:23:34;;;;;;;11.40;7.33;;;;;;;;;;5085416;28;20183;-72
2021/01/08 03:26:00;;;;;;;10.73;7.10;;;;;;;;;;5071553;28;20176;-72
2021/01/08 03:28:25;;;;;;;12.43;7.23;;;;;;;;;;5078028;28;20187;-72
2021/01/08 03:30:50;;;;;;;11.73;6.97;;;;;;;;;;5088286;28;20188;-71
2021/01/08 03:33:16;;;;;;;12.40;6.43;;;;;;;;;;5078364;28;20187;-72
2021/01/08 03:35:41;;;;;;;13.40;6.70;;;;;;;;;;5094434;28;20230;-71
2021/01/08 03:38:06;;;;;;;11.20;6.33;;;;;;;;;;5062476;28;20228;-72
2021/01/08 03:40:34;;;;;;;12.43;6.40;;;;;;;;;;5069862;28;20660;-72
2021/01/08 03:42:59;;;;;;;9.80;6.10;;;;;;;;;;5058595;28;20288;-72
2021/01/08 03:45:25;;;;;;;9.57;6.20;;;;;;;;;;5051895;28;20271;-72
2021/01/08 03:47:51;;;;;;;10.93;6.20;;;;;;;;;;5058750;28;20541;-72
2021/01/08 03:50:16;;;;;;;9.20;5.77;;;;;;;;;;5050896;28;20192;-71
2021/01/08 03:52:41;;;;;;;8.87;6.60;;;;;;;;;;5036500;28;20525;-72
2021/01/08 03:55:08;;;;;;;10.77;6.60;;;;;;;;;;5069195;28;20199;-72
2021/01/08 03:57:33;;;;;;;8.80;6.40;;;;;;;;;;5066630;28;20291;-72
2021/01/08 03:59:58;;;;;;;9.60;6.43;;;;;;;;;;5057220;28;20268;-73
2021/01/08 04:02:23;;;;;;;9.53;6.63;;;;;;;;;;5066096;28;20272;-72
2021/01/08 04:04:49;;;;;;;10.37;6.50;;;;;;;;;;5059630;28;20191;-73
2021/01/08 04:07:14;;;;;;;10.70;6.30;;;;;;;;;;5065516;28;20212;-72
2021/01/08 04:09:40;;;;;;;9.03;6.53;;;;;;;;;;5060623;28;20188;-72
2021/01/08 04:12:05;;;;;;;8.37;6.13;;;;;;;;;;5046308;28;20188;-72
2021/01/08 04:14:30;;;;;;;8.60;6.10;;;;;;;;;;5060072;28;20584;-72
2021/01/08 04:16:56;;;;;;;9.30;5.60;;;;;;;;;;5065517;28;20200;-72
2021/01/08 04:19:21;;;;;;;7.60;5.80;;;;;;;;;;5058421;28;20199;-72
2021/01/08 04:21:46;;;;;;;7.63;5.93;;;;;;;;;;5067218;28;20234;-73
2021/01/08 04:24:12;;;;;;;7.67;5.90;;;;;;;;;;5068942;28;20196;-72
2021/01/08 04:26:38;;;;;;;8.60;5.80;;;;;;;;;;5057676;28;20543;-72
2021/01/08 04:29:03;;;;;;;7.77;5.90;;;;;;;;;;5068369;28;20185;-73
2021/01/08 04:31:29;;;;;;;8.63;6.40;;;;;;;;;;5057783;28;20606;-73
2021/01/08 04:33:54;;;;;;;9.43;6.00;;;;;;;;;;5064999;28;20196;-72
2021/01/08 04:36:20;;;;;;;8.67;6.10;;;;;;;;;;5056336;28;20209;-72
2021/01/08 04:38:45;;;;;;;7.83;5.87;;;;;;;;;;5067543;28;20204;-72
2021/01/08 04:41:11;;;;;;;8.17;5.47;;;;;;;;;;5057318;28;20216;-72
2021/01/08 04:43:37;;;;;;;8.33;5.77;;;;;;;;;;5066016;28;20271;-72
2021/01/08 04:46:21;;;;;;;7.63;5.70;;;;;;;;;;5054636;28;20188;-72
2021/01/08 04:48:47;;;;;;;7.67;5.40;;;;;;;;;;5065009;28;20262;-72
2021/01/08 04:51:14;;;;;;;6.30;4.90;;;;;;;;;;5038916;28;20188;-72
2021/01/08 04:53:40;;;;;;;7.33;5.03;;;;;;;;;;5049302;28;20246;-72
2021/01/08 04:56:12;;;;;;;7.60;4.90;;;;;;;;;;5055162;28;20308;-72
2021/01/08 04:58:37;;;;;;;7.00;5.00;;;;;;;;;;5066644;28;20701;-72
2021/01/08 05:01:03;;;;;;;6.13;5.00;;;;;;;;;;5061036;28;20193;-72
2021/01/08 05:03:29;;;;;;;6.97;5.03;;;;;;;;;;5055795;28;20283;-72
2021/01/08 05:05:55;;;;;;;6.20;4.60;;;;;;;;;;5064333;28;20563;-72
2021/01/08 05:08:21;;;;;;;7.90;5.30;;;;;;;;;;5057259;28;20208;-72
2021/01/08 05:10:46;;;;;;;7.17;5.40;;;;;;;;;;5064107;28;20192;-72
2021/01/08 05:13:12;;;;;;;7.90;5.83;;;;;;;;;;5037133;28;20747;-72
2021/01/08 05:15:38;;;;;;;8.97;5.53;;;;;;;;;;5049514;28;20180;-72
2021/01/08 05:18:04;;;;;;;8.97;5.57;;;;;;;;;;5056054;28;20208;-72
2021/01/08 05:20:30;;;;;;;7.50;5.70;;;;;;;;;;5062236;28;20187;-72
2021/01/08 05:22:57;;;;;;;9.10;5.60;;;;;;;;;;5058277;28;20203;-73
2021/01/08 05:25:22;;;;;;;8.33;5.80;;;;;;;;;;5062672;28;20193;-72
2021/01/08 05:27:49;;;;;;;8.83;5.80;;;;;;;;;;5053632;28;20533;-72
2021/01/08 05:30:25;;;;;;;9.93;6.00;;;;;;;;;;5064277;28;20242;-72
2021/01/08 05:33:00;;;;;;;9.30;6.33;;;;;;;;;;5059437;28;20784;-72
2021/01/08 05:35:26;;;;;;;10.33;6.40;;;;;;;;;;5066136;28;20724;-71
2021/01/08 05:37:56;;;;;;;8.67;5.90;;;;;;;;;;5064333;28;20628;-72
2021/01/08 05:40:26;;;;;;;13.07;6.47;;;;;;;;;;5062536;28;20228;-72
2021/01/08 05:43:07;;;;;;;11.48;6.76;;;;;;;;;;4887963;28;10000702;-72
2021/01/08 05:45:33;;;;;;;11.67;6.80;;;;;;;;;;5041866;28;20439;-72
2021/01/08 05:48:00;;;;;;;8.90;5.70;;;;;;;;;;5059177;28;20665;-72
2021/01/08 05:50:28;;;;;;;10.53;6.80;;;;;;;;;;5048305;28;20189;-71
2021/01/08 05:53:06;;;;;;;10.83;6.00;;;;;;;;;;5056797;28;20717;-71
2021/01/08 05:55:43;;;;;;;10.43;5.93;;;;;;;;;;5051339;28;20272;-71
2021/01/08 05:58:18;;;;;;;11.47;6.63;;;;;;;;;;5058416;28;20193;-71
2021/01/08 06:00:59;;;;;;;10.83;6.13;;;;;;;;;;5051457;28;20183;-71
2021/01/08 06:03:26;;;;;;;8.80;6.07;;;;;;;;;;5057252;28;20188;-71
2021/01/08 06:05:56;;;;;;;8.40;6.23;;;;;;;;;;5053669;28;20212;-71
2021/01/08 06:08:25;;;;;;;9.93;6.47;;;;;;;;;;5059552;28;20631;-71
2021/01/08 06:10:52;;;;;;;8.77;5.50;;;;;;;;;;5060557;28;20201;-71
2021/01/08 06:13:20;;;;;;;8.67;5.83;;;;;;;;;;5059377;28;20191;-72
2021/01/08 06:15:47;;;;;;;9.73;6.00;;;;;;;;;;5033076;28;20378;-71
2021/01/08 06:18:14;;;;;;;9.00;5.13;;;;;;;;;;5059028;28;20296;-71
2021/01/08 06:20:39;;;;;;;9.40;5.87;;;;;;;;;;5051826;28;22173;-72
2021/01/08 06:23:06;;;;;;;7.97;5.80;;;;;;;;;;5055473;28;20188;-72
2021/01/08 06:25:32;;;;;;;9.03;5.90;;;;;;;;;;5059514;28;20184;-72
2021/01/08 06:28:03;;;;;;;7.87;5.90;;;;;;;;;;5053932;28;20209;-72
2021/01/08 06:30:33;;;;;;;6.50;5.17;;;;;;;;;;5062983;28;20651;-73
2021/01/08 06:33:04;;;;;;;9.10;5.37;;;;;;;;;;5052494;28;20210;-72
2021/01/08 06:35:32;;;;;;;7.47;5.60;;;;;;;;;;5061963;28;20553;-72
2021/01/08 06:37:59;;;;;;;9.80;5.33;;;;;;;;;;5047899;28;20229;-72
2021/01/08 06:40:38;;;;;;;10.33;5.47;;;;;;;;;;5056266;28;20195;-72
2021/01/08 06:43:16;;;;;;;8.97;6.07;;;;;;;;;;5056277;28;20219;-72
2021/01/08 06:45:51;;;;;;;6.87;5.23;;;;;;;;;;5063181;28;20186;-72
2021/01/08 06:48:17;;;;;;;7.70;5.80;;;;;;;;;;5057958;28;20196;-72
2021/01/08 06:50:43;;;;;;;8.47;6.10;;;;;;;;;;5063751;28;20243;-72
2021/01/08 06:53:15;;;;;;;10.13;6.40;;;;;;;;;;5042583;28;20180;-72
2021/01/08 06:55:45;;;;;;;7.93;5.70;;;;;;;;;;5044643;28;20234;-72
2021/01/08 06:58:17;;;;;;;8.50;5.97;;;;;;;;;;5061447;28;20250;-72
2021/01/08 07:00:49;;;;;;;8.77;6.43;;;;;;;;;;5062372;28;20181;-72
2021/01/08 07:03:14;;;;;;;8.70;6.17;;;;;;;;;;5039456;28;20181;-72
2021/01/08 07:05:40;;;;;;;8.70;5.73;;;;;;;;;;5063469;28;20204;-72
2021/01/08 07:08:06;;;;;;;8.13;5.87;;;;;;;;;;5059194;28;20199;-72
2021/01/08 07:10:31;;;;;;;10.13;6.30;;;;;;;;;;5064892;28;20249;-72
2021/01/08 07:12:57;;;;;;;7.37;6.03;;;;;;;;;;4715797;28;10000339;-72
2021/01/08 07:15:25;;;;;;;8.20;6.43;;;;;;;;;;5049975;28;20220;-72
2021/01/08 07:17:54;;;;;;;7.33;5.93;;;;;;;;;;5061735;28;20855;-72
2021/01/08 07:20:20;;;;;;;12.50;6.60;;;;;;;;;;5052079;28;20651;-73
2021/01/08 07:22:51;;;;;;;8.63;6.23;;;;;;;;;;5045133;28;20663;-72
2021/01/08 07:25:17;;;;;;;10.03;6.60;;;;;;;;;;5051826;28;20188;-72
2021/01/08 07:27:43;;;;;;;8.00;6.30;;;;;;;;;;5058973;28;20181;-72
2021/01/08 07:30:09;;;;;;;9.47;6.20;;;;;;;;;;5052904;28;20208;-73
2021/01/08 07:32:53;;;;;;;9.63;6.37;;;;;;;;;;5059347;28;20220;-72
2021/01/08 07:35:28;;;;;;;8.67;6.40;;;;;;;;;;5050194;28;20193;-72
2021/01/08 07:38:03;;;;;;;10.17;7.40;;;;;;;;;;5056188;28;20788;-72
2021/01/08 07:40:32;;;;;;;11.13;7.17;;;;;;;;;;5073132;28;20206;-72
2021/01/08 07:43:08;;;;;;;12.20;7.20;;;;;;;;;;5084978;28;20188;-72
2021/01/08 07:46:10;;;;;;;10.87;7.80;;;;;;;;;;5066424;28;20198;-72
2021/01/08 07:48:38;;;;;;;10.87;7.23;;;;;;;;;;5070570;28;20245;-72
2021/01/08 07:51:07;;;;;;;12.13;7.83;;;;;;;;;;5072061;28;20683;-72
2021/01/08 07:53:48;;;;;;;11.73;7.67;;;;;;;;;;5063739;28;20191;-71
2021/01/08 07:56:19;;;;;;;10.07;7.23;;;;;;;;;;5061471;28;20204;-72
2021/01/08 07:58:47;;;;;;;11.63;7.57;;;;;;;;;;5083511;28;20188;-72
2021/01/08 08:01:15;;;;;;;11.57;7.57;;;;;;;;;;5076243;28;20180;-71
2021/01/08 08:03:41;;;;;;;14.93;7.87;;;;;;;;;;5063686;28;20270;-72
2021/01/08 08:06:07;;;;;;;11.10;8.00;;;;;;;;;;5076111;28;20239;-72
2021/01/08 08:08:42;;;;;;;10.97;7.23;;;;;;;;;;5082875;28;20653;-72
2021/01/08 08:11:16;;;;;;;10.50;6.97;;;;;;;;;;5076348;28;20171;-72
2021/01/08 08:13:43;;;;;;;9.60;6.70;;;;;;;;;;5080284;28;20200;-72
2021/01/08 08:16:09;;;;;;;11.10;7.23;;;;;;;;;;5084793;28;20215;-72
2021/01/08 08:18:51;;;;;;;11.90;7.70;;;;;;;;;;5073681;28;20543;-72
2021/01/08 08:21:17;;;;;;;10.20;6.97;;;;;;;;;;5084962;28;20228;-72
2021/01/08 08:23:50;;;;;;;10.73;7.07;;;;;;;;;;5076857;28;20302;-73
2021/01/08 08:26:15;;;;;;;10.93;6.80;;;;;;;;;;5083157;28;20326;-72
2021/01/08 08:28:40;;;;;;;10.17;6.77;;;;;;;;;;5074169;28;20924;-73
2021/01/08 08:31:06;;;;;;;10.87;6.97;;;;;;;;;;5068380;28;20191;-73
2021/01/08 08:33:31;;;;;;;9.80;6.97;;;;;;;;;;5075729;28;20184;-72
2021/01/08 08:35:57;;;;;;;9.67;6.23;;;;;;;;;;5087193;28;20197;-73
2021/01/08 08:38:23;;;;;;;8.60;6.20;;;;;;;;;;5057865;28;20216;-73
2021/01/08 08:40:48;;;;;;;9.23;6.43;;;;;;;;;;5060833;28;20215;-73
2021/01/08 08:43:24;;;;;;;9.93;6.20;;;;;;;;;;5052050;28;21002;-73
2021/01/08 08:45:56;;;;;;;11.07;6.90;;;;;;;;;;5037320;28;20192;-72
2021/01/08 08:48:21;;;;;;;10.60;6.53;;;;;;;;;;5052219;28;20196;-72
2021/01/08 08:50:47;;;;;;;10.97;7.30;;;;;;;;;;5065638;28;20177;-72
2021/01/08 08:53:14;;;;;;;10.33;6.97;;;;;;;;;;5053307;28;20189;-72
2021/01/08 08:55:40;;;;;;;11.27;7.40;;;;;;;;;;5046337;28;20258;-72
2021/01/08 08:58:10;;;;;;;9.57;6.60;;;;;;;;;;5065773;28;20219;-72
2021/01/08 09:00:40;;;;;;;10.43;7.30;;;;;;;;;;5055698;28;20632;-72
2021/01/08 09:03:22;;;;;;;11.30;7.27;;;;;;;;;;5063104;28;20173;-72
2021/01/08 09:05:52;;;;;;;9.90;7.33;;;;;;;;;;5050316;28;20216;-71
2021/01/08 09:08:26;;;;;;;10.00;6.93;;;;;;;;;;5048094;28;20189;-73
2021/01/08 09:10:58;;;;;;;10.03;6.77;;;;;;;;;;5052730;28;20184;-73
2021/01/08 09:13:48;;;;;;;10.67;7.40;;;;;;;;;;5063559;28;20188;-74
2021/01/08 09:16:22;;;;;;;9.17;6.07;;;;;;;;;;5053898;28;20638;-73
2021/01/08 09:19:02;;;;;;;11.07;7.23;;;;;;;;;;5048831;28;20184;-72
2021/01/08 09:21:31;;;;;;;9.67;6.80;;;;;;;;;;5052374;28;20606;-72
2021/01/08 09:24:03;;;;;;;9.33;6.20;;;;;;;;;;5044518;28;20180;-73
2021/01/08 09:26:30;;;;;;;12.13;7.13;;;;;;;;;;5053536;28;20180;-73
2021/01/08 09:28:56;;;;;;;10.23;6.87;;;;;;;;;;5063567;28;20192;-73
2021/01/08 09:31:41;;;;;;;12.93;7.03;;;;;;;;;;5054102;28;20185;-73
2021/01/08 09:34:08;;;;;;;9.87;6.80;;;;;;;;;;5063781;28;20546;-73
2021/01/08 09:36:35;;;;;;;10.00;7.37;;;;;;;;;;5053788;28;20193;-73
2021/01/08 09:39:05;;;;;;;10.40;7.37;;;;;;;;;;5083266;28;20655;-73
2021/01/08 09:41:39;;;;;;;10.73;7.30;;;;;;;;;;5074294;28;20207;-73
2021/01/08 09:44:06;;;;;;;9.47;6.70;;;;;;;;;;5084120;28;20172;-74
2021/01/08 09:46:48;;;;;;;9.77;6.60;;;;;;;;;;5074383;28;20184;-72
2021/01/08 09:49:14;;;;;;;8.90;6.57;;;;;;;;;;5081659;28;20608;-72
2021/01/08 09:51:40;;;;;;;10.20;6.73;;;;;;;;;;5073144;28;20207;-73
2021/01/08 09:54:05;;;;;;;8.10;6.00;;;;;;;;;;5083841;28;20194;-72
2021/01/08 09:56:31;;;;;;;8.73;6.20;;;;;;;;;;5076181;28;20750;-72
2021/01/08 09:59:16;;;;;;;9.43;6.60;;;;;;;;;;5084407;28;20200;-72
2021/01/08 10:04:47;;;;;;;8.47;5.80;;;;;;;;;;5052101;28;20200;-72
2021/01/08 10:07:12;;;;;;;8.23;6.00;;;;;;;;;;5077308;28;20199;-73
2021/01/08 10:09:48;;;;;;;7.50;5.90;;;;;;;;;;5088471;28;20198;-73
2021/01/08 10:12:15;;;;;;;7.30;5.67;;;;;;;;;;5077762;28;20183;-72
2021/01/08 10:14:41;;;;;;;10.13;5.83;;;;;;;;;;5083954;28;20538;-73
2021/01/08 10:17:11;;;;;;;8.10;5.43;;;;;;;;;;5086315;28;20216;-73
2021/01/08 10:19:38;;;;;;;7.13;5.30;;;;;;;;;;5086481;28;20185;-72
2021/01/08 10:22:04;;;;;;;6.70;5.17;;;;;;;;;;5083916;28;20542;-72
2021/01/08 10:24:29;;;;;;;7.27;5.10;;;;;;;;;;5078121;28;20191;-72
2021/01/08 10:26:55;;;;;;;6.80;5.37;;;;;;;;;;5085829;28;20176;-72
2021/01/08 10:29:29;;;;;;;9.47;5.20;;;;;;;;;;5080471;28;20587;-72
2021/01/08 10:31:56;;;;;;;7.57;5.27;;;;;;;;;;5084424;28;20180;-73
2021/01/08 10:34:22;;;;;;;7.67;4.70;;;;;;;;;;5081061;28;20551;-72
2021/01/08 10:36:47;;;;;;;7.50;4.83;;;;;;;;;;5084147;28;20218;-72
2021/01/08 10:39:12;;;;;;;7.83;5.33;;;;;;;;;;5039672;28;20296;-72
2021/01/08 10:41:38;;;;;;;7.23;5.40;;;;;;;;;;5050104;28;20188;-72
2021/01/08 10:44:03;;;;;;;7.50;5.23;;;;;;;;;;5056210;28;20193;-72
2021/01/08 10:46:29;;;;;;;7.63;5.10;;;;;;;;;;5066610;28;20227;-72
2021/01/08 10:48:55;;;;;;;9.50;6.07;;;;;;;;;;5057598;28;21874;-72
2021/01/08 10:51:26;;;;;;;7.10;4.93;;;;;;;;;;5057261;28;20268;-71
2021/01/08 10:53:52;;;;;;;7.33;5.37;;;;;;;;;;5067743;28;20241;-71
2021/01/08 10:56:26;;;;;;;7.83;5.50;;;;;;;;;;5048414;28;20205;-71
2021/01/08 10:58:52;;;;;;;8.73;5.73;;;;;;;;;;5059103;28;20176;-72
2021/01/08 11:01:17;;;;;;;8.00;5.83;;;;;;;;;;5028791;28;20199;-72
2021/01/08 11:03:42;;;;;;;7.93;5.63;;;;;;;;;;5066547;28;20191;-72
2021/01/08 11:06:14;;;;;;;9.90;5.87;;;;;;;;;;5059145;28;20204;-72
2021/01/08 11:08:40;;;;;;;7.90;5.97;;;;;;;;;;5055031;28;20193;-72
2021/01/08 11:11:05;;;;;;;10.07;6.43;;;;;;;;;;5056091;28;20184;-72
2021/01/08 11:13:31;;;;;;;9.50;6.10;;;;;;;;;;5065989;28;20642;-72
2021/01/08 11:15:56;;;;;;;9.53;6.00;;;;;;;;;;4352513;28;10000742;-71
2021/01/08 11:18:21;;;;;;;7.87;5.80;;;;;;;;;;5064228;28;20189;-73
2021/01/08 11:20:47;;;;;;;8.37;5.60;;;;;;;;;;5035871;28;20214;-72
2021/01/08 11:23:12;;;;;;;7.73;5.60;;;;;;;;;;5045636;28;20277;-72
2021/01/08 11:25:37;;;;;;;8.00;6.00;;;;;;;;;;5054217;28;20609;-72
2021/01/08 11:28:03;;;;;;;9.23;5.80;;;;;;;;;;5063882;28;20648;-72
2021/01/08 11:30:29;;;;;;;10.53;5.67;;;;;;;;;;5060857;28;20200;-72
2021/01/08 11:32:54;;;;;;;8.30;6.07;;;;;;;;;;5056493;28;20185;-72
2021/01/08 11:35:20;;;;;;;6.87;4.60;;;;;;;;;;5067260;28;20195;-72
2021/01/08 11:37:45;;;;;;;8.17;6.03;;;;;;;;;;5067568;28;20232;-72
2021/01/08 11:40:11;;;;;;;9.57;5.30;;;;;;;;;;5084922;28;20184;-72
2021/01/08 11:42:36;;;;;;;7.40;5.00;;;;;;;;;;5075958;28;20647;-72
2021/01/08 11:45:02;;;;;;;6.53;4.67;;;;;;;;;;5083567;28;20192;-72
2021/01/08 11:47:28;;;;;;;7.17;5.20;;;;;;;;;;5075103;28;20684;-71
2021/01/08 11:49:53;;;;;;;7.23;4.77;;;;;;;;;;5083104;28;20679;-72
2021/01/08 11:52:18;;;;;;;6.43;5.00;;;;;;;;;;5076473;28;20207;-71
2021/01/08 11:54:44;;;;;;;7.87;5.13;;;;;;;;;;5073959;28;20207;-71
2021/01/08 11:57:09;;;;;;;7.03;5.13;;;;;;;;;;5056260;28;20204;-71
2021/01/08 11:59:34;;;;;;;8.30;5.67;;;;;;;;;;5071595;28;20195;-71
2021/01/08 12:02:04;;;;;;;7.93;5.20;;;;;;;;;;5085115;28;20183;-72
2021/01/08 12:04:30;;;;;;;7.83;4.87;;;;;;;;;;5069270;28;20186;-72
2021/01/08 12:06:57;;;;;;;6.87;4.83;;;;;;;;;;5082625;28;20282;-71
2021/01/08 12:09:23;;;;;;;8.07;5.37;;;;;;;;;;5074538;28;20265;-72
2021/01/08 12:11:54;;;;;;;8.13;5.40;;;;;;;;;;5085255;28;20543;-72
2021/01/08 12:14:19;;;;;;;8.93;5.43;;;;;;;;;;5075225;28;20709;-72
2021/01/08 12:16:44;;;;;;;7.57;5.10;;;;;;;;;;5086034;28;20226;-72
2021/01/08 12:19:10;;;;;;;9.43;5.60;;;;;;;;;;5077728;28;20184;-72
2021/01/08 12:21:35;;;;;;;7.63;5.13;;;;;;;;;;5085823;28;20671;-72
2021/01/08 12:24:00;;;;;;;10.17;5.60;;;;;;;;;;5074295;28;20204;-72
2021/01/08 12:26:26;;;;;;;7.60;5.40;;;;;;;;;;5083909;28;20184;-71
2021/01/08 12:28:51;;;;;;;7.33;5.47;;;;;;;;;;5074691;28;20188;-71
2021/01/08 12:31:24;;;;;;;7.30;5.17;;;;;;;;;;5084583;28;20184;-72
2021/01/08 12:33:50;;;;;;;8.23;4.60;;;;;;;;;;5084839;28;20199;-71
2021/01/08 12:36:17;;;;;;;7.03;4.60;;;;;;;;;;5074142;28;20192;-72
2021/01/08 12:38:42;;;;;;;6.43;4.60;;;;;;;;;;5081227;28;20227;-72
2021/01/08 12:41:07;;;;;;;8.30;4.80;;;;;;;;;;5056010;28;20202;-71
2021/01/08 12:43:33;;;;;;;6.03;4.13;;;;;;;;;;5083205;28;20270;-71
2021/01/08 12:45:58;;;;;;;6.97;5.27;;;;;;;;;;5073576;28;20211;-71
2021/01/08 12:48:23;;;;;;;6.97;4.77;;;;;;;;;;5083914;28;20188;-71
2021/01/08 12:50:48;;;;;;;6.77;4.33;;;;;;;;;;5076151;28;20212;-72
2021/01/08 12:53:14;;;;;;;6.00;4.60;;;;;;;;;;5083482;28;20651;-71
2021/01/08 12:55:39;;;;;;;7.13;4.90;;;;;;;;;;5074142;28;20611;-71
2021/01/08 12:58:04;;;;;;;6.70;4.73;;;;;;;;;;5078315;28;20216;-71
2021/01/08 13:00:30;;;;;;;7.07;5.00;;;;;;;;;;5076683;28;20662;-71
2021/01/08 13:02:55;;;;;;;5.13;4.10;;;;;;;;;;5082013;28;20378;-74
2021/01/08 13:05:20;;;;;;;6.43;4.13;;;;;;;;;;5083791;28;20674;-71
2021/01/08 13:07:46;;;;;;;6.07;4.53;;;;;;;;;;5073671;28;20204;-71
2021/01/08 13:10:12;;;;;;;8.80;4.40;;;;;;;;;;5086014;28;20267;-71
2021/01/08 13:12:37;;;;;;;6.57;4.73;;;;;;;;;;5073175;28;20191;-72
2021/01/08 13:15:03;;;;;;;6.37;4.60;;;;;;;;;;5087073;28;20203;-72
2021/01/08 13:17:29;;;;;;;6.97;4.70;;;;;;;;;;5073321;28;20213;-72
2021/01/08 13:19:55;;;;;;;8.07;4.70;;;;;;;;;;5080027;28;20184;-71
2021/01/08 13:22:22;;;;;;;7.23;4.93;;;;;;;;;;5077725;28;20270;-72
2021/01/08 13:24:47;;;;;;;6.57;4.80;;;;;;;;;;5086967;28;20245;-71
2021/01/08 13:27:13;;;;;;;6.73;5.10;;;;;;;;;;5074249;28;20176;-71
2021/01/08 13:29:38;;;;;;;8.00;5.23;;;;;;;;;;5086811;28;20184;-71
2021/01/08 13:32:04;;;;;;;7.33;4.80;;;;;;;;;;5078234;28;20191;-72
2021/01/08 13:34:30;;;;;;;8.03;5.23;;;;;;;;;;5086797;28;20176;-71
2021/01/08 13:36:55;;;;;;;7.23;4.77;;;;;;;;;;5084725;28;20702;-72
2021/01/08 13:39:22;;;;;;;7.77;4.70;;;;;;;;;;5077550;28;20188;-72
2021/01/08 13:42:05;;;;;;;7.10;5.10;;;;;;;;;;5068042;28;20200;-72
2021/01/08 13:44:31;;;;;;;7.00;5.20;;;;;;;;;;5076436;28;20571;-72
2021/01/08 13:46:56;;;;;;;7.00;5.20;;;;;;;;;;5082644;28;20262;-71
2021/01/08 13:49:22;;;;;;;8.20;5.10;;;;;;;;;;5075282;28;20180;-72
2021/01/08 13:51:47;;;;;;;8.00;5.40;;;;;;;;;;5066852;28;20214;-71
2021/01/08 13:54:13;;;;;;;9.07;5.00;;;;;;;;;;5077491;28;20215;-71
2021/01/08 13:56:38;;;;;;;8.37;5.03;;;;;;;;;;5064552;28;20234;-72
2021/01/08 13:59:04;;;;;;;6.33;4.83;;;;;;;;;;5074427;28;20252;-71
2021/01/08 14:01:29;;;;;;;7.27;5.00;;;;;;;;;;5065266;28;20184;-72
2021/01/08 14:03:54;;;;;;;6.70;4.80;;;;;;;;;;5055807;28;20184;-71
2021/01/08 14:06:21;;;;;;;7.13;5.03;;;;;;;;;;5084651;28;20207;-71
2021/01/08 14:08:47;;;;;;;7.73;5.23;;;;;;;;;;5077649;28;20639;-72
2021/01/08 14:11:21;;;;;;;7.70;5.33;;;;;;;;;;5083041;28;20183;-72
2021/01/08 14:13:46;;;;;;;7.63;5.50;;;;;;;;;;5085183;28;20561;-72
2021/01/08 14:16:15;;;;;;;8.13;5.40;;;;;;;;;;5074725;28;20184;-72
2021/01/08 14:18:41;;;;;;;7.17;5.37;;;;;;;;;;5083556;28;20781;-72
2021/01/08 14:21:06;;;;;;;8.63;5.93;;;;;;;;;;5073875;28;20192;-72
2021/01/08 14:23:32;;;;;;;8.93;5.63;;;;;;;;;;5086309;28;20191;-72
2021/01/08 14:25:58;;;;;;;10.07;5.87;;;;;;;;;;5076535;28;20184;-72
2021/01/08 14:28:23;;;;;;;9.77;6.13;;;;;;;;;;5083552;28;20196;-72
2021/01/08 14:30:48;;;;;;;8.37;5.50;;;;;;;;;;5077178;28;20184;-72
2021/01/08 14:33:14;;;;;;;8.33;6.10;;;;;;;;;;5086403;28;20188;-72
2021/01/08 14:35:39;;;;;;;9.87;6.00;;;;;;;;;;5075439;28;20276;-72
2021/01/08 14:38:04;;;;;;;10.03;6.67;;;;;;;;;;5081765;28;20301;-72
2021/01/08 14:40:30;;;;;;;10.13;6.73;;;;;;;;;;5057698;28;20323;-72
2021/01/08 14:42:55;;;;;;;11.30;6.73;;;;;;;;;;5082343;28;20537;-72